Terminal Aerodrome Forecast
Issued by NWS

Home | Current Version | Previous Version | Graphics & Text | Print | Product List | Glossary On
Versions: 1 2 3 4 5 6 7 8 9 10 11 12 13 14 15 16 17 18 19 20 21
000
FTUS43 KIWX 202324
TAFSBN
TAF
KSBN 202324Z 2100/2124 14004KT 1/2SM -DZ FG OVC002
     FM210200 16005KT 3/4SM -DZ BR OVC004
     FM210500 14006KT 1SM BR VCSH OVC005
     FM210900 16007KT 2SM BR OVC006
     FM211400 16006KT 4SM BR OVC008
     FM211600 16007KT 6SM BR BKN020=

USA.gov is the U.S. government's official web portal to all federal, state and local government web resources and services.